Time;durP1;ratioP1;P1;durP2;ratioP2;P2;SDS_P1;SDS_P2;PMS_P1;PMS_P2;Temp;Humidity;BMP_temperature;BMP_pressure;BME280_temperature;BME280_humidity;BME280_pressure;Samples;Min_cycle;Max_cycle;Signal;HPM_P1;HPM_P2
2023/08/23 00:00:45;;;;;;;5.28;2.60;;;;;;;;;;5074682;28;20024;-67
2023/08/23 00:03:11;;;;;;;6.30;2.90;;;;;;;;;;5077866;28;20021;-67
2023/08/23 00:05:37;;;;;;;5.25;2.67;;;;;;;;;;5081430;28;20043;-68
2023/08/23 00:08:03;;;;;;;5.18;3.22;;;;;;;;;;5078652;28;20395;-67
2023/08/23 00:10:29;;;;;;;7.18;3.17;;;;;;;;;;5084341;28;20066;-67
2023/08/23 00:12:56;;;;;;;5.32;2.75;;;;;;;;;;5086329;28;20872;-68
2023/08/23 00:15:22;;;;;;;3.47;2.88;;;;;;;;;;5082199;28;20164;-67
2023/08/23 00:17:48;;;;;;;6.82;2.95;;;;;;;;;;5083093;28;20589;-67
2023/08/23 00:20:15;;;;;;;8.70;2.60;;;;;;;;;;5076211;28;20500;-67
2023/08/23 00:22:41;;;;;;;5.05;3.05;;;;;;;;;;5082149;28;20024;-67
2023/08/23 00:25:08;;;;;;;7.57;2.65;;;;;;;;;;5089474;28;20035;-67
2023/08/23 00:27:34;;;;;;;8.07;3.55;;;;;;;;;;5077948;28;20020;-67
2023/08/23 00:30:00;;;;;;;5.47;2.83;;;;;;;;;;5083472;28;20032;-67
2023/08/23 00:32:29;;;;;;;5.68;2.80;;;;;;;;;;5083956;28;20028;-68
2023/08/23 00:34:55;;;;;;;9.07;2.50;;;;;;;;;;5083520;28;20040;-67
2023/08/23 00:37:21;;;;;;;8.32;3.28;;;;;;;;;;5077675;28;20618;-67
2023/08/23 00:39:47;;;;;;;6.82;2.22;;;;;;;;;;5085720;28;20032;-67
2023/08/23 00:42:13;;;;;;;8.80;3.33;;;;;;;;;;5081130;28;20046;-67
2023/08/23 00:44:40;;;;;;;9.23;2.85;;;;;;;;;;5083771;28;20327;-66
2023/08/23 00:47:06;;;;;;;7.15;2.70;;;;;;;;;;5073867;28;20513;-66
2023/08/23 00:49:34;;;;;;;7.43;3.00;;;;;;;;;;5085156;28;20111;-66
2023/08/23 00:52:01;;;;;;;9.05;2.80;;;;;;;;;;5078894;28;20512;-66
2023/08/23 00:54:27;;;;;;;10.93;4.03;;;;;;;;;;5088459;28;20435;-68
2023/08/23 00:56:55;;;;;;;5.90;2.47;;;;;;;;;;5087656;28;20471;-69
2023/08/23 00:59:22;;;;;;;7.18;2.72;;;;;;;;;;5090360;28;20134;-68
2023/08/23 01:01:48;;;;;;;5.00;3.08;;;;;;;;;;5067411;28;20024;-66
2023/08/23 01:04:14;;;;;;;5.53;3.00;;;;;;;;;;5080091;28;20270;-68
2023/08/23 01:06:53;;;;;;;5.50;2.65;;;;;;;;;;5079856;28;20219;-69
2023/08/23 01:09:35;;;;;;;5.47;2.65;;;;;;;;;;5087788;28;20019;-68
2023/08/23 01:12:01;;;;;;;4.88;2.45;;;;;;;;;;5080743;28;20057;-68
2023/08/23 01:14:51;;;;;;;6.80;3.33;;;;;;;;;;5084025;28;20114;-68
2023/08/23 01:17:19;;;;;;;5.13;2.88;;;;;;;;;;5068975;28;20078;-68
2023/08/23 01:19:50;;;;;;;5.47;3.10;;;;;;;;;;5088661;28;20032;-69
2023/08/23 01:22:20;;;;;;;7.85;2.83;;;;;;;;;;5073496;28;20843;-70
2023/08/23 01:24:47;;;;;;;8.70;2.63;;;;;;;;;;5082448;28;20085;-68
2023/08/23 01:27:13;;;;;;;4.05;2.70;;;;;;;;;;5084677;28;20036;-68
2023/08/23 01:29:39;;;;;;;6.78;2.50;;;;;;;;;;5080015;28;20322;-68
2023/08/23 01:32:25;;;;;;;6.28;3.08;;;;;;;;;;5081951;28;20028;-68
2023/08/23 01:34:57;;;;;;;4.03;2.60;;;;;;;;;;5047213;28;20040;-68
2023/08/23 01:37:24;;;;;;;6.32;2.83;;;;;;;;;;5085245;28;20430;-68
2023/08/23 01:39:52;;;;;;;7.45;2.60;;;;;;;;;;5085093;28;20024;-68
2023/08/23 01:42:20;;;;;;;5.28;2.67;;;;;;;;;;5084545;28;20035;-68
2023/08/23 01:44:46;;;;;;;7.85;2.80;;;;;;;;;;5080889;28;20034;-68
2023/08/23 01:47:15;;;;;;;5.18;2.83;;;;;;;;;;5081852;28;20421;-68
2023/08/23 01:49:41;;;;;;;8.43;3.13;;;;;;;;;;5076311;28;20028;-68
2023/08/23 01:52:07;;;;;;;3.35;2.60;;;;;;;;;;5078946;28;20028;-68
2023/08/23 01:54:33;;;;;;;5.82;2.67;;;;;;;;;;5078229;28;20020;-68
2023/08/23 01:56:59;;;;;;;3.72;3.20;;;;;;;;;;5084876;28;20476;-68
2023/08/23 01:59:25;;;;;;;6.53;3.40;;;;;;;;;;5079929;28;20646;-68
2023/08/23 02:01:52;;;;;;;5.03;3.10;;;;;;;;;;5080323;28;20071;-68
2023/08/23 02:04:19;;;;;;;3.47;2.90;;;;;;;;;;5062584;28;20028;-68
2023/08/23 02:06:45;;;;;;;5.65;2.45;;;;;;;;;;5078320;28;20012;-68
2023/08/23 02:09:11;;;;;;;7.05;2.88;;;;;;;;;;5073941;28;20062;-68
2023/08/23 02:11:38;;;;;;;5.63;2.70;;;;;;;;;;5082863;28;20032;-68
2023/08/23 02:14:04;;;;;;;7.00;2.72;;;;;;;;;;5063991;28;20127;-68
2023/08/23 02:16:30;;;;;;;4.60;2.55;;;;;;;;;;5079253;28;20028;-68
2023/08/23 02:18:56;;;;;;;8.27;3.65;;;;;;;;;;5081976;28;20036;-68
2023/08/23 02:21:23;;;;;;;5.63;3.05;;;;;;;;;;5068931;28;20151;-68
2023/08/23 02:23:49;;;;;;;7.18;3.17;;;;;;;;;;5081676;28;20039;-68
2023/08/23 02:26:16;;;;;;;5.15;2.80;;;;;;;;;;5080497;28;20483;-68
2023/08/23 02:28:45;;;;;;;6.35;2.90;;;;;;;;;;5082483;28;20038;-68
2023/08/23 02:31:14;;;;;;;4.32;2.40;;;;;;;;;;5076278;28;20043;-68
2023/08/23 02:33:40;;;;;;;7.45;3.22;;;;;;;;;;5080640;28;20035;-68
2023/08/23 02:36:06;;;;;;;4.32;3.00;;;;;;;;;;5066581;28;20166;-68
2023/08/23 02:38:33;;;;;;;11.73;3.53;;;;;;;;;;5078592;28;20038;-68
2023/08/23 02:41:02;;;;;;;4.05;3.17;;;;;;;;;;5079333;28;20035;-71
2023/08/23 02:43:28;;;;;;;5.40;3.10;;;;;;;;;;5081674;28;20020;-68
2023/08/23 02:45:55;;;;;;;7.00;2.60;;;;;;;;;;5078303;28;20077;-68
2023/08/23 02:48:21;;;;;;;3.50;2.42;;;;;;;;;;5061897;28;20123;-68
2023/08/23 02:50:47;;;;;;;5.78;3.17;;;;;;;;;;5077729;28;20392;-68
2023/08/23 02:53:13;;;;;;;6.75;3.20;;;;;;;;;;5079503;28;20174;-68
2023/08/23 02:55:39;;;;;;;4.43;2.92;;;;;;;;;;5086316;28;20023;-68
2023/08/23 02:58:06;;;;;;;7.70;2.83;;;;;;;;;;5082624;28;20028;-68
2023/08/23 03:00:35;;;;;;;4.88;2.45;;;;;;;;;;5078409;28;20024;-68
2023/08/23 03:03:01;;;;;;;8.40;3.63;;;;;;;;;;5082363;28;20048;-68
2023/08/23 03:05:35;;;;;;;6.88;2.90;;;;;;;;;;5080632;28;20118;-68
2023/08/23 03:08:04;;;;;;;8.43;3.45;;;;;;;;;;5079809;28;20048;-68
2023/08/23 03:10:31;;;;;;;9.57;2.70;;;;;;;;;;5077907;28;20086;-68
2023/08/23 03:12:57;;;;;;;4.15;3.20;;;;;;;;;;5079856;28;20043;-68
2023/08/23 03:15:23;;;;;;;9.57;3.88;;;;;;;;;;5081496;28;20041;-68
2023/08/23 03:17:49;;;;;;;9.77;2.50;;;;;;;;;;5077010;28;20046;-68
2023/08/23 03:20:15;;;;;;;6.28;2.90;;;;;;;;;;5070974;28;20028;-68
2023/08/23 03:22:44;;;;;;;8.15;2.95;;;;;;;;;;5084738;28;20038;-68
2023/08/23 03:25:12;;;;;;;4.80;3.10;;;;;;;;;;5081316;28;20551;-68
2023/08/23 03:27:41;;;;;;;6.80;2.45;;;;;;;;;;5082178;28;20032;-68
2023/08/23 03:30:08;;;;;;;5.15;2.72;;;;;;;;;;5066991;28;20030;-68
2023/08/23 03:32:34;;;;;;;6.53;2.90;;;;;;;;;;5078195;28;20032;-68
2023/08/23 03:35:00;;;;;;;5.28;2.92;;;;;;;;;;5079275;28;20035;-68
2023/08/23 03:37:26;;;;;;;4.90;2.60;;;;;;;;;;5085065;28;20084;-68
2023/08/23 03:39:52;;;;;;;4.97;2.83;;;;;;;;;;5080567;28;20528;-69
2023/08/23 03:42:19;;;;;;;4.28;2.60;;;;;;;;;;5063023;28;20507;-72
2023/08/23 03:44:45;;;;;;;7.68;2.72;;;;;;;;;;5083622;28;20036;-68
2023/08/23 03:47:11;;;;;;;6.30;2.65;;;;;;;;;;5084274;28;20036;-68
2023/08/23 03:49:37;;;;;;;6.50;2.80;;;;;;;;;;5085948;28;20036;-68
2023/08/23 03:52:04;;;;;;;4.03;2.50;;;;;;;;;;5085171;28;20549;-68
2023/08/23 03:54:30;;;;;;;6.57;2.70;;;;;;;;;;5084542;28;20031;-68
2023/08/23 03:56:56;;;;;;;5.82;2.80;;;;;;;;;;5079486;28;20040;-67
2023/08/23 03:59:22;;;;;;;5.00;2.72;;;;;;;;;;5074726;28;20032;-68
2023/08/23 04:01:48;;;;;;;8.25;3.10;;;;;;;;;;5081749;28;20566;-68
2023/08/23 04:04:14;;;;;;;4.13;2.55;;;;;;;;;;5080039;28;20122;-67
2023/08/23 04:06:44;;;;;;;9.70;3.25;;;;;;;;;;5093153;28;20468;-68
2023/08/23 04:09:10;;;;;;;3.70;2.40;;;;;;;;;;5082948;28;20028;-68
2023/08/23 04:11:36;;;;;;;9.77;3.40;;;;;;;;;;5079977;28;20040;-68
2023/08/23 04:14:02;;;;;;;8.05;3.13;;;;;;;;;;5083639;28;20031;-68
2023/08/23 04:16:28;;;;;;;4.95;2.70;;;;;;;;;;5085497;28;20070;-68
2023/08/23 04:18:55;;;;;;;4.75;2.47;;;;;;;;;;5082894;28;20064;-68
2023/08/23 04:21:21;;;;;;;5.93;2.60;;;;;;;;;;5082970;28;20086;-68
2023/08/23 04:23:50;;;;;;;7.45;3.28;;;;;;;;;;5083642;28;20055;-68
2023/08/23 04:26:16;;;;;;;5.07;2.90;;;;;;;;;;5087578;28;20051;-68
2023/08/23 04:28:43;;;;;;;8.13;3.30;;;;;;;;;;5082664;28;20039;-70
2023/08/23 04:31:09;;;;;;;8.00;3.00;;;;;;;;;;5084850;28;20023;-68
2023/08/23 04:33:35;;;;;;;4.70;2.58;;;;;;;;;;5077795;28;20106;-68
2023/08/23 04:36:02;;;;;;;4.63;2.65;;;;;;;;;;5069831;28;20044;-68
2023/08/23 04:38:28;;;;;;;7.43;2.70;;;;;;;;;;5062843;28;20036;-68
2023/08/23 04:41:05;;;;;;;3.55;2.50;;;;;;;;;;5062441;28;20040;-68
2023/08/23 04:43:31;;;;;;;7.93;2.63;;;;;;;;;;5064052;28;20582;-68
2023/08/23 04:45:58;;;;;;;5.82;2.90;;;;;;;;;;5064701;28;20036;-68
2023/08/23 04:48:24;;;;;;;6.00;3.40;;;;;;;;;;5061546;28;20047;-68
2023/08/23 04:50:54;;;;;;;4.28;2.83;;;;;;;;;;5064398;28;20028;-68
2023/08/23 04:53:20;;;;;;;5.75;2.58;;;;;;;;;;5063711;28;20035;-68
2023/08/23 04:55:46;;;;;;;6.78;2.75;;;;;;;;;;5062845;28;20028;-68
2023/08/23 04:58:12;;;;;;;4.53;2.50;;;;;;;;;;5040717;28;20028;-69
2023/08/23 05:00:39;;;;;;;7.60;2.65;;;;;;;;;;5065641;28;20029;-68
2023/08/23 05:03:06;;;;;;;7.13;3.80;;;;;;;;;;5062990;28;20036;-69
2023/08/23 05:05:35;;;;;;;4.85;2.92;;;;;;;;;;5058138;28;20055;-68
2023/08/23 05:08:01;;;;;;;5.70;2.67;;;;;;;;;;5059293;28;20392;-68
2023/08/23 05:10:28;;;;;;;3.92;3.08;;;;;;;;;;5061144;28;20531;-68
2023/08/23 05:12:55;;;;;;;5.60;2.50;;;;;;;;;;5058947;28;20033;-68
2023/08/23 05:15:22;;;;;;;4.97;2.83;;;;;;;;;;5067318;28;20048;-68
2023/08/23 05:17:49;;;;;;;4.97;2.90;;;;;;;;;;5061031;28;20459;-68
2023/08/23 05:20:18;;;;;;;6.40;3.70;;;;;;;;;;5053610;28;20055;-68
2023/08/23 05:22:44;;;;;;;5.97;2.60;;;;;;;;;;5060975;28;20111;-68
2023/08/23 05:25:10;;;;;;;6.85;2.70;;;;;;;;;;5067555;28;20510;-68
2023/08/23 05:27:36;;;;;;;5.22;2.67;;;;;;;;;;5061639;28;20039;-67
2023/08/23 05:30:03;;;;;;;5.72;2.90;;;;;;;;;;5059016;28;20029;-68
2023/08/23 05:32:30;;;;;;;3.65;2.60;;;;;;;;;;5057065;28;20527;-67
2023/08/23 05:34:56;;;;;;;4.57;3.00;;;;;;;;;;5054898;28;20044;-67
2023/08/23 05:37:22;;;;;;;7.88;2.92;;;;;;;;;;5054422;28;20508;-67
2023/08/23 05:39:48;;;;;;;5.88;2.80;;;;;;;;;;5062331;28;20037;-67
2023/08/23 05:42:17;;;;;;;6.07;2.83;;;;;;;;;;5057187;28;20029;-67
2023/08/23 05:44:44;;;;;;;5.63;2.67;;;;;;;;;;5058311;28;20029;-66
2023/08/23 05:47:10;;;;;;;5.45;2.92;;;;;;;;;;5061080;28;20024;-67
2023/08/23 05:49:36;;;;;;;8.32;3.42;;;;;;;;;;5066991;28;20036;-67
2023/08/23 05:52:02;;;;;;;7.20;3.10;;;;;;;;;;5057600;28;20400;-67
2023/08/23 05:54:31;;;;;;;5.32;3.05;;;;;;;;;;5059873;28;20107;-67
2023/08/23 05:56:59;;;;;;;6.45;3.35;;;;;;;;;;5054855;28;20431;-66
2023/08/23 05:59:26;;;;;;;7.95;3.35;;;;;;;;;;5060617;28;20036;-67
2023/08/23 06:01:52;;;;;;;5.22;2.80;;;;;;;;;;5059937;28;20056;-67
2023/08/23 06:04:18;;;;;;;7.78;2.60;;;;;;;;;;5060848;28;20043;-67
2023/08/23 06:06:44;;;;;;;6.35;2.83;;;;;;;;;;5039537;28;20428;-67
2023/08/23 06:09:10;;;;;;;5.60;2.80;;;;;;;;;;5055732;28;20447;-68
2023/08/23 06:11:36;;;;;;;5.10;3.08;;;;;;;;;;5050744;28;20506;-68
2023/08/23 06:14:15;;;;;;;7.32;3.47;;;;;;;;;;5047496;28;20116;-67
2023/08/23 06:16:41;;;;;;;5.15;2.90;;;;;;;;;;5057601;28;20515;-68
2023/08/23 06:19:08;;;;;;;5.22;2.53;;;;;;;;;;5055403;28;20435;-68
2023/08/23 06:21:34;;;;;;;6.28;2.65;;;;;;;;;;5058969;28;20024;-68
2023/08/23 06:24:00;;;;;;;4.25;2.50;;;;;;;;;;5059151;28;20691;-68
2023/08/23 06:26:26;;;;;;;8.43;3.00;;;;;;;;;;5061698;28;20036;-66
2023/08/23 06:28:52;;;;;;;6.10;3.38;;;;;;;;;;5037847;28;20040;-68
2023/08/23 06:31:19;;;;;;;4.97;2.80;;;;;;;;;;5056575;28;20039;-65
2023/08/23 06:33:45;;;;;;;6.00;2.60;;;;;;;;;;5057402;28;20111;-66
2023/08/23 06:36:11;;;;;;;5.65;2.40;;;;;;;;;;5080323;28;20052;-66
2023/08/23 06:38:37;;;;;;;6.57;2.70;;;;;;;;;;5079660;28;20076;-66
2023/08/23 06:41:04;;;;;;;3.70;2.67;;;;;;;;;;5080541;28;20503;-68
2023/08/23 06:43:31;;;;;;;6.05;3.20;;;;;;;;;;5085663;28;20753;-68
2023/08/23 06:45:57;;;;;;;10.55;3.15;;;;;;;;;;5083264;28;20031;-68
2023/08/23 06:48:23;;;;;;;4.32;2.20;;;;;;;;;;5083950;28;20107;-65
2023/08/23 06:50:51;;;;;;;8.18;3.05;;;;;;;;;;5083802;28;20441;-65
2023/08/23 06:53:17;;;;;;;4.25;2.40;;;;;;;;;;5082941;28;20709;-65
2023/08/23 06:55:43;;;;;;;4.20;2.33;;;;;;;;;;5080107;28;20065;-66
2023/08/23 06:58:09;;;;;;;3.65;2.53;;;;;;;;;;5081141;28;20031;-66
2023/08/23 07:00:36;;;;;;;7.45;3.08;;;;;;;;;;5081624;28;20029;-66
2023/08/23 07:03:03;;;;;;;6.47;2.35;;;;;;;;;;5059003;28;20146;-66
2023/08/23 07:05:29;;;;;;;4.97;2.47;;;;;;;;;;5076435;28;20039;-66
2023/08/23 07:07:55;;;;;;;6.10;2.72;;;;;;;;;;5063200;28;20024;-67
2023/08/23 07:10:30;;;;;;;5.22;2.58;;;;;;;;;;5078418;28;20091;-66
2023/08/23 07:12:57;;;;;;;4.90;2.70;;;;;;;;;;5061281;28;20119;-65
2023/08/23 07:15:25;;;;;;;5.05;2.38;;;;;;;;;;5048614;28;20047;-68
2023/08/23 07:17:51;;;;;;;7.93;3.67;;;;;;;;;;5072451;28;20491;-68
2023/08/23 07:20:17;;;;;;;5.40;2.42;;;;;;;;;;5072859;28;20111;-66
2023/08/23 07:22:43;;;;;;;7.10;2.60;;;;;;;;;;5079516;28;20050;-65
2023/08/23 07:25:10;;;;;;;7.13;3.03;;;;;;;;;;5078796;28;20024;-66
2023/08/23 07:27:42;;;;;;;5.18;2.38;;;;;;;;;;5073997;28;20371;-67
2023/08/23 07:30:09;;;;;;;7.15;2.95;;;;;;;;;;5053375;28;20063;-64
2023/08/23 07:32:35;;;;;;;5.47;2.47;;;;;;;;;;5078684;28;20158;-65
2023/08/23 07:35:02;;;;;;;4.00;2.50;;;;;;;;;;5080777;28;20036;-65
2023/08/23 07:37:28;;;;;;;4.60;2.75;;;;;;;;;;5085932;28;20466;-65
2023/08/23 07:39:55;;;;;;;6.00;2.83;;;;;;;;;;5075431;28;20509;-64
2023/08/23 07:42:23;;;;;;;6.25;3.65;;;;;;;;;;5076744;28;20028;-66
2023/08/23 07:44:50;;;;;;;3.55;2.72;;;;;;;;;;5080048;28;20024;-65
2023/08/23 07:47:25;;;;;;;5.90;2.58;;;;;;;;;;5087591;28;20028;-67
2023/08/23 07:49:51;;;;;;;5.70;2.40;;;;;;;;;;5080916;28;20421;-65
2023/08/23 07:52:18;;;;;;;5.07;2.67;;;;;;;;;;5080706;28;20024;-67
2023/08/23 07:54:45;;;;;;;6.78;2.33;;;;;;;;;;5076569;28;20080;-65
2023/08/23 07:57:12;;;;;;;7.53;2.45;;;;;;;;;;5069139;28;20040;-68
2023/08/23 07:59:55;;;;;;;9.35;2.70;;;;;;;;;;5084082;28;20032;-65
2023/08/23 08:02:22;;;;;;;6.32;2.40;;;;;;;;;;5085988;28;20497;-66
2023/08/23 08:04:48;;;;;;;5.95;2.90;;;;;;;;;;5084412;28;20366;-65
2023/08/23 08:07:14;;;;;;;5.35;2.42;;;;;;;;;;5084607;28;20051;-65
2023/08/23 08:09:44;;;;;;;5.65;2.30;;;;;;;;;;5082865;28;20039;-66
2023/08/23 08:12:10;;;;;;;4.60;2.58;;;;;;;;;;5085548;28;20023;-66
2023/08/23 08:14:36;;;;;;;6.10;2.70;;;;;;;;;;5079025;28;20085;-66
2023/08/23 08:17:03;;;;;;;7.75;2.50;;;;;;;;;;5051887;28;20119;-66
2023/08/23 08:19:29;;;;;;;4.20;2.38;;;;;;;;;;5077813;28;20484;-68
2023/08/23 08:21:55;;;;;;;3.88;2.05;;;;;;;;;;5079008;28;20020;-66
2023/08/23 08:24:21;;;;;;;3.00;2.20;;;;;;;;;;5056513;28;20353;-67
2023/08/23 08:26:47;;;;;;;3.35;2.42;;;;;;;;;;5076227;28;20052;-67
2023/08/23 08:29:13;;;;;;;3.40;2.30;;;;;;;;;;5069183;28;20024;-67
2023/08/23 08:31:50;;;;;;;5.53;2.33;;;;;;;;;;5075906;28;20033;-66
2023/08/23 08:34:16;;;;;;;5.22;2.40;;;;;;;;;;5076705;28;20510;-67
2023/08/23 08:36:43;;;;;;;4.70;2.53;;;;;;;;;;5053870;28;20559;-65
2023/08/23 08:39:09;;;;;;;5.43;2.85;;;;;;;;;;5077206;28;20635;-66
2023/08/23 08:41:35;;;;;;;3.72;2.35;;;;;;;;;;5078297;28;20032;-66
2023/08/23 08:44:02;;;;;;;4.22;2.38;;;;;;;;;;5072221;28;20032;-65
2023/08/23 08:46:31;;;;;;;7.15;2.30;;;;;;;;;;5056213;28;20032;-66
2023/08/23 08:48:58;;;;;;;5.05;2.40;;;;;;;;;;5056774;28;20016;-66
2023/08/23 08:51:25;;;;;;;5.43;2.42;;;;;;;;;;5085002;28;20110;-68
2023/08/23 08:53:52;;;;;;;4.55;2.13;;;;;;;;;;5083648;28;20059;-67
2023/08/23 08:56:19;;;;;;;4.25;2.72;;;;;;;;;;5083555;28;20035;-68
2023/08/23 08:58:46;;;;;;;8.82;2.65;;;;;;;;;;5071020;28;20457;-67
2023/08/23 09:01:14;;;;;;;9.18;2.58;;;;;;;;;;5074501;28;20028;-66
2023/08/23 09:03:41;;;;;;;4.82;2.35;;;;;;;;;;5076456;28;20108;-65
2023/08/23 09:06:07;;;;;;;6.20;2.88;;;;;;;;;;5075977;28;20036;-68
2023/08/23 09:08:34;;;;;;;3.28;2.20;;;;;;;;;;5072665;28;20036;-66
2023/08/23 09:11:00;;;;;;;3.08;2.10;;;;;;;;;;5077063;28;20107;-69
2023/08/23 09:13:26;;;;;;;3.15;2.05;;;;;;;;;;5069988;28;21233;-65
2023/08/23 09:15:52;;;;;;;2.97;2.10;;;;;;;;;;5070921;28;20028;-70
2023/08/23 09:18:19;;;;;;;6.20;2.10;;;;;;;;;;5070046;28;20475;-68
2023/08/23 09:20:46;;;;;;;4.78;2.17;;;;;;;;;;5076363;28;20478;-69
2023/08/23 09:23:15;;;;;;;2.88;1.90;;;;;;;;;;5044375;28;20039;-69
2023/08/23 09:25:41;;;;;;;3.95;2.03;;;;;;;;;;5069600;28;20590;-72
2023/08/23 09:28:12;;;;;;;3.22;2.20;;;;;;;;;;5055471;28;20028;-71
2023/08/23 09:30:38;;;;;;;2.83;1.90;;;;;;;;;;5073015;28;20502;-71
2023/08/23 09:33:04;;;;;;;5.13;2.00;;;;;;;;;;5076564;28;20259;-70
2023/08/23 09:35:31;;;;;;;5.72;2.55;;;;;;;;;;5071212;28;20168;-71
2023/08/23 09:37:57;;;;;;;2.33;1.80;;;;;;;;;;5075176;28;20059;-72
2023/08/23 09:40:25;;;;;;;4.40;2.35;;;;;;;;;;5073463;28;20031;-69
2023/08/23 09:42:52;;;;;;;7.03;2.72;;;;;;;;;;5072194;28;20020;-67
2023/08/23 09:45:20;;;;;;;2.97;2.65;;;;;;;;;;5068197;28;20028;-66
2023/08/23 09:47:50;;;;;;;8.05;4.53;;;;;;;;;;5069305;28;20369;-68
2023/08/23 09:50:18;;;;;;;7.85;2.30;;;;;;;;;;5065154;28;20648;-68
2023/08/23 09:52:45;;;;;;;3.67;2.00;;;;;;;;;;5066260;28;20035;-67
2023/08/23 09:55:11;;;;;;;6.95;2.35;;;;;;;;;;5069306;28;20107;-67
2023/08/23 09:57:38;;;;;;;5.13;2.42;;;;;;;;;;5071827;28;20472;-67
2023/08/23 10:00:06;;;;;;;3.08;2.05;;;;;;;;;;5067741;28;20040;-66
2023/08/23 10:02:33;;;;;;;6.47;2.60;;;;;;;;;;5072137;28;20036;-66
2023/08/23 10:05:06;;;;;;;4.35;2.10;;;;;;;;;;5074305;28;20055;-67
2023/08/23 10:07:36;;;;;;;3.55;2.10;;;;;;;;;;5066046;28;20021;-66
2023/08/23 10:10:05;;;;;;;2.58;1.65;;;;;;;;;;5068426;28;20073;-69
2023/08/23 10:12:33;;;;;;;2.47;2.00;;;;;;;;;;5070511;28;20566;-69
2023/08/23 10:15:00;;;;;;;3.90;2.03;;;;;;;;;;5073863;28;20034;-69
2023/08/23 10:17:27;;;;;;;4.47;2.42;;;;;;;;;;5068279;28;20075;-68
2023/08/23 10:19:53;;;;;;;1.92;1.73;;;;;;;;;;5067174;28;21003;-67
2023/08/23 10:22:19;;;;;;;2.25;1.80;;;;;;;;;;5073793;28;20039;-67
2023/08/23 10:24:47;;;;;;;3.88;2.38;;;;;;;;;;5071547;28;20035;-67
2023/08/23 10:27:14;;;;;;;2.10;1.90;;;;;;;;;;5069845;28;20093;-67
2023/08/23 10:29:40;;;;;;;2.42;2.00;;;;;;;;;;5065769;28;20055;-70
2023/08/23 10:32:09;;;;;;;3.55;2.78;;;;;;;;;;5071001;28;20024;-70
2023/08/23 10:34:36;;;;;;;2.53;1.95;;;;;;;;;;5069572;28;20032;-68
2023/08/23 10:37:13;;;;;;;2.53;1.90;;;;;;;;;;5073665;28;20036;-68
2023/08/23 10:39:45;;;;;;;2.47;1.90;;;;;;;;;;5072615;28;20467;-69
2023/08/23 10:42:12;;;;;;;2.33;1.90;;;;;;;;;;5073887;28;20020;-68
2023/08/23 10:44:50;;;;;;;3.17;1.75;;;;;;;;;;5069998;28;20269;-68
2023/08/23 10:47:16;;;;;;;3.05;2.45;;;;;;;;;;5069948;28;20036;-68
2023/08/23 10:49:43;;;;;;;2.13;1.85;;;;;;;;;;5071486;28;20119;-69
2023/08/23 10:52:09;;;;;;;1.90;1.70;;;;;;;;;;5072915;28;20177;-70
2023/08/23 10:54:37;;;;;;;2.72;2.00;;;;;;;;;;5072047;28;20036;-67
2023/08/23 10:57:03;;;;;;;2.95;1.80;;;;;;;;;;5056011;28;20027;-69
2023/08/23 10:59:29;;;;;;;2.58;1.80;;;;;;;;;;5057614;28;20438;-65
2023/08/23 11:01:56;;;;;;;2.45;1.88;;;;;;;;;;5066031;28;20441;-66
2023/08/23 11:04:23;;;;;;;3.25;2.00;;;;;;;;;;5076771;28;20020;-66
2023/08/23 11:06:50;;;;;;;2.47;1.75;;;;;;;;;;5069984;28;20027;-66
2023/08/23 11:09:16;;;;;;;2.65;1.80;;;;;;;;;;5070145;28;20469;-67
2023/08/23 11:11:43;;;;;;;2.97;1.83;;;;;;;;;;5074337;28;20417;-66
2023/08/23 11:14:10;;;;;;;2.45;1.77;;;;;;;;;;5073070;28;20627;-66
2023/08/23 11:16:38;;;;;;;3.42;1.70;;;;;;;;;;5071252;28;20115;-67
2023/08/23 11:19:05;;;;;;;2.80;1.90;;;;;;;;;;5068197;28;20028;-67
2023/08/23 11:21:32;;;;;;;3.10;1.95;;;;;;;;;;5071498;28;20078;-66
2023/08/23 11:24:03;;;;;;;1.85;1.75;;;;;;;;;;5071883;28;20593;-69
2023/08/23 11:26:30;;;;;;;2.53;1.83;;;;;;;;;;5069813;28;20057;-67
2023/08/23 11:28:56;;;;;;;3.33;1.88;;;;;;;;;;5050932;28;20096;-66
2023/08/23 11:31:22;;;;;;;3.00;2.35;;;;;;;;;;5069108;28;20032;-67
2023/08/23 11:33:49;;;;;;;2.50;1.70;;;;;;;;;;5070818;28;20521;-66
2023/08/23 11:36:19;;;;;;;2.38;1.90;;;;;;;;;;5067181;28;20534;-66
2023/08/23 11:38:47;;;;;;;2.33;1.95;;;;;;;;;;5066683;28;20507;-67
2023/08/23 11:41:13;;;;;;;1.90;1.75;;;;;;;;;;5068613;28;20032;-66
2023/08/23 11:43:44;;;;;;;3.90;1.90;;;;;;;;;;5049848;28;21542;-64
2023/08/23 11:46:10;;;;;;;2.30;1.77;;;;;;;;;;5067491;28;20020;-68
2023/08/23 11:48:37;;;;;;;2.05;1.80;;;;;;;;;;5072247;28;20032;-66
2023/08/23 11:51:05;;;;;;;1.77;1.67;;;;;;;;;;5070341;28;20105;-64
2023/08/23 11:53:31;;;;;;;1.63;1.45;;;;;;;;;;5070627;28;20128;-64
2023/08/23 11:55:58;;;;;;;1.70;1.60;;;;;;;;;;5071615;28;20035;-63
2023/08/23 11:58:25;;;;;;;1.55;1.40;;;;;;;;;;5072044;28;20028;-65
2023/08/23 12:00:51;;;;;;;1.27;1.20;;;;;;;;;;5073577;28;20028;-67
2023/08/23 12:03:17;;;;;;;4.28;1.58;;;;;;;;;;5072865;28;20024;-68
2023/08/23 12:05:43;;;;;;;1.83;1.40;;;;;;;;;;5067663;28;20035;-68
2023/08/23 12:08:09;;;;;;;2.25;1.50;;;;;;;;;;5074309;28;20024;-65
2023/08/23 12:10:36;;;;;;;1.50;1.40;;;;;;;;;;5051447;28;20039;-64
2023/08/23 12:13:02;;;;;;;1.27;1.27;;;;;;;;;;5074452;28;20036;-63
2023/08/23 12:15:29;;;;;;;2.50;1.73;;;;;;;;;;5075167;28;20114;-63
2023/08/23 12:17:55;;;;;;;2.30;1.65;;;;;;;;;;5078619;28;20024;-64
2023/08/23 12:20:21;;;;;;;1.58;1.48;;;;;;;;;;5076718;28;20361;-63
2023/08/23 12:22:48;;;;;;;2.75;1.48;;;;;;;;;;5073829;28;20422;-63
2023/08/23 12:25:14;;;;;;;1.48;1.38;;;;;;;;;;5066434;28;20028;-65
2023/08/23 12:27:40;;;;;;;2.15;1.40;;;;;;;;;;5078046;28;20498;-68
2023/08/23 12:30:09;;;;;;;1.05;1.05;;;;;;;;;;5076984;28;20039;-64
2023/08/23 12:32:35;;;;;;;1.40;1.30;;;;;;;;;;5074224;28;20028;-66
2023/08/23 12:35:05;;;;;;;1.02;1.02;;;;;;;;;;5054059;28;20078;-68
2023/08/23 12:37:32;;;;;;;1.23;1.10;;;;;;;;;;5074872;28;20153;-62
2023/08/23 12:39:58;;;;;;;2.25;1.35;;;;;;;;;;5069792;28;20191;-68
2023/08/23 12:42:24;;;;;;;1.88;1.10;;;;;;;;;;5077349;28;20111;-69
2023/08/23 12:44:50;;;;;;;1.90;1.30;;;;;;;;;;5077160;28;20389;-68
2023/08/23 12:47:17;;;;;;;1.08;1.08;;;;;;;;;;5076989;28;20614;-68
2023/08/23 12:49:43;;;;;;;1.08;1.08;;;;;;;;;;5057367;28;20043;-68
2023/08/23 12:52:11;;;;;;;1.50;1.40;;;;;;;;;;5079634;28;20080;-67
2023/08/23 12:54:38;;;;;;;1.13;1.13;;;;;;;;;;5072363;28;20568;-68
2023/08/23 12:57:04;;;;;;;1.10;1.10;;;;;;;;;;5077534;28;20059;-68
2023/08/23 12:59:30;;;;;;;1.15;1.15;;;;;;;;;;5072438;28;20063;-68
2023/08/23 13:01:58;;;;;;;1.25;1.25;;;;;;;;;;5073606;28;20692;-64
2023/08/23 13:04:24;;;;;;;1.50;1.20;;;;;;;;;;5075660;28;20376;-67
2023/08/23 13:06:50;;;;;;;1.30;1.30;;;;;;;;;;5078172;28;20039;-67
2023/08/23 13:09:16;;;;;;;1.35;1.30;;;;;;;;;;5076212;28;20408;-67
2023/08/23 13:11:42;;;;;;;1.42;1.33;;;;;;;;;;5075624;28;20048;-66
2023/08/23 13:14:08;;;;;;;1.75;1.58;;;;;;;;;;5071396;28;20556;-66
2023/08/23 13:16:35;;;;;;;1.00;1.00;;;;;;;;;;5071781;28;20648;-69
2023/08/23 13:19:01;;;;;;;1.20;1.20;;;;;;;;;;5072763;28;20042;-68
2023/08/23 13:21:27;;;;;;;1.17;1.17;;;;;;;;;;5080316;28;20483;-69
2023/08/23 13:23:53;;;;;;;1.10;1.10;;;;;;;;;;5073728;28;20107;-65
2023/08/23 13:26:19;;;;;;;1.58;1.40;;;;;;;;;;5078768;28;20447;-65
2023/08/23 13:28:45;;;;;;;1.10;1.10;;;;;;;;;;5076746;28;20418;-66
2023/08/23 13:31:11;;;;;;;1.00;1.00;;;;;;;;;;5077535;28;20100;-65
2023/08/23 13:33:38;;;;;;;1.00;1.00;;;;;;;;;;5077075;28;20295;-66
2023/08/23 13:36:04;;;;;;;1.23;1.00;;;;;;;;;;5052763;28;20048;-67
2023/08/23 13:38:30;;;;;;;2.60;1.65;;;;;;;;;;5077534;28;20020;-68
2023/08/23 13:40:56;;;;;;;1.40;1.30;;;;;;;;;;5073166;28;20124;-68
2023/08/23 13:43:22;;;;;;;2.90;2.10;;;;;;;;;;5080034;28;20032;-69
2023/08/23 13:45:48;;;;;;;1.67;1.20;;;;;;;;;;5052970;28;20186;-65
2023/08/23 13:48:14;;;;;;;1.27;1.27;;;;;;;;;;5074817;28;20506;-72
2023/08/23 13:50:41;;;;;;;1.27;1.20;;;;;;;;;;5067714;28;20450;-72
2023/08/23 13:53:07;;;;;;;1.10;1.10;;;;;;;;;;5075789;28;20174;-72
2023/08/23 13:55:33;;;;;;;1.00;1.00;;;;;;;;;;5072732;28;20055;-72
2023/08/23 13:57:59;;;;;;;1.40;1.27;;;;;;;;;;5075360;28;20695;-72
2023/08/23 14:00:26;;;;;;;1.05;1.05;;;;;;;;;;5072828;28;20028;-71
2023/08/23 14:02:52;;;;;;;1.20;1.20;;;;;;;;;;5073654;28;20024;-71
2023/08/23 14:05:18;;;;;;;1.00;1.00;;;;;;;;;;5073677;28;20023;-71
2023/08/23 14:07:44;;;;;;;1.10;1.10;;;;;;;;;;5076075;28;20384;-71
2023/08/23 14:10:11;;;;;;;1.58;1.48;;;;;;;;;;5073956;28;20051;-70
2023/08/23 14:12:37;;;;;;;2.33;1.50;;;;;;;;;;5070993;28;20047;-71
2023/08/23 14:15:03;;;;;;;1.70;1.60;;;;;;;;;;5068991;28;20047;-68
2023/08/23 14:17:29;;;;;;;1.65;1.50;;;;;;;;;;5071777;28;20133;-68
2023/08/23 14:19:56;;;;;;;1.70;1.60;;;;;;;;;;5051129;28;20559;-68
2023/08/23 14:22:22;;;;;;;3.33;2.70;;;;;;;;;;5068929;28;20476;-68
2023/08/23 14:24:48;;;;;;;1.90;1.80;;;;;;;;;;5068600;28;20024;-63
2023/08/23 14:27:14;;;;;;;3.65;1.50;;;;;;;;;;5072077;28;20062;-63
2023/08/23 14:29:41;;;;;;;1.60;1.50;;;;;;;;;;5054324;28;20032;-66
2023/08/23 14:32:07;;;;;;;3.00;1.63;;;;;;;;;;5066621;28;20044;-66
2023/08/23 14:34:34;;;;;;;1.50;1.40;;;;;;;;;;5072282;28;20055;-64
2023/08/23 14:37:01;;;;;;;1.50;1.40;;;;;;;;;;5073602;28;20031;-64
2023/08/23 14:39:27;;;;;;;2.28;1.60;;;;;;;;;;5075086;28;20128;-64
2023/08/23 14:41:53;;;;;;;1.80;1.33;;;;;;;;;;5070527;28;20082;-63